Date,TemperatureHighF,TemperatureAvgF,TemperatureLowF,DewpointHighF,DewpointAvgF,DewpointLowF,HumidityHigh,HumidityAvg,HumidityLow,PressureMaxIn,PressureMinIn,WindSpeedMaxMPH,WindSpeedAvgMPH,GustSpeedMaxMPH,PrecipitationSumIn
2013-3-1,49,39,42,39,15,-100,78,59,58,29.89,29.80,22,-154,23,0.00
2013-3-2,47,39,41,38,20,-100,80,63,63,29.90,29.80,18,-110,23,0.00
2013-3-3,44,36,38,31,14,-100,72,55,55,29.92,29.84,20,-106,21,0.00
2013-3-4,46,37,37,35,13,-100,75,53,46,30.09,29.91,20,-115,24,0.00
2013-3-5,53,42,42,51,24,-100,94,65,58,30.14,29.69,13,-100,18,0.00
2013-3-6,57,37,41,55,16,-100,94,69,67,29.78,29.49,45,-158,58,0.00
2013-3-7,50,39,42,39,18,-100,84,65,64,30.14,29.79,34,-131,42,0.00
2013-3-8,49,39,41,39,16,-100,78,59,57,30.16,30.06,29,-123,33,0.00
2013-3-9,48,41,42,40,21,-100,82,63,60,30.31,30.16,29,-103,34,0.00
2013-3-10,53,43,44,48,27,-100,92,74,71,30.33,30.27,14,-113,15,0.00
2013-3-11,59,48,48,53,33,-100,93,76,76,30.30,30.07,17,-95,21,0.00
2013-3-12,58,46,51,58,28,-100,98,79,87,30.05,29.81,18,-140,33,0.00
2013-3-13,55,44,46,54,29,-100,98,71,65,30.05,29.85,19,-89,29,0.00
2013-3-14,50,41,40,40,19,-100,69,52,47,30.19,30.04,23,-83,27,0.00
2013-3-15,53,45,42,47,27,-100,83,60,52,30.20,29.98,17,-69,27,0.00
2013-3-16,60,52,53,54,39,-100,91,78,75,29.97,29.73,24,-74,29,0.00
2013-3-17,58,46,47,54,33,-100,93,81,85,30.19,29.85,24,-89,32,0.00
2013-3-18,66,46,48,61,28,-100,96,76,82,30.18,29.93,26,-161,28,0.00
2013-3-19,61,50,53,57,36,-100,96,79,73,29.96,29.77,15,-110,20,0.00
2013-3-20,58,46,48,51,18,-100,80,44,33,30.11,29.83,16,-102,25,0.00
2013-3-21,51,40,40,41,20,-100,86,61,50,29.93,29.69,23,-100,30,0.00
2013-3-22,47,37,36,38,13,-100,73,50,41,30.09,29.92,22,-97,26,0.00
2013-3-23,52,45,45,42,27,-100,86,63,60,30.05,29.95,10,-66,17,0.00
2013-3-24,58,45,44,58,31,-100,98,76,58,29.99,29.45,31,-82,59,0.14
2013-3-25,49,32,42,45,-4,-100,94,55,57,29.77,29.45,26,-307,38,0.00
2013-3-26,49,40,42,38,18,-100,73,56,56,30.05,29.77,24,-116,33,0.00
2013-3-27,52,42,43,39,21,-100,77,58,50,30.17,30.05,18,-98,23,0.00
2013-3-28,53,43,42,40,22,-100,77,58,50,30.25,30.13,20,-87,24,0.00
2013-3-29,54,46,45,44,30,-100,86,63,50,30.32,30.22,18,-56,20,0.00
2013-3-30,57,49,47,49,37,-100,91,76,67,30.26,30.16,9,-63,13,0.00
2013-3-31,58,50,50,55,35,-100,91,76,74,30.18,29.88,21,-96,23,0.00